createdAt,value
2023-04-24T00:01:54.940Z,2.50
2023-04-24T00:04:28.077Z,2.50
2023-04-24T00:07:02.087Z,3.03
2023-04-24T00:09:33.364Z,2.87
2023-04-24T00:12:07.558Z,2.30
2023-04-24T00:14:39.278Z,3.50
2023-04-24T00:17:10.723Z,2.70
2023-04-24T00:19:42.618Z,2.70
2023-04-24T00:22:15.232Z,2.83
2023-04-24T00:24:46.455Z,2.47
2023-04-24T00:27:20.208Z,2.83
2023-04-24T00:29:51.360Z,3.07
2023-04-24T00:32:23.290Z,2.80
2023-04-24T00:34:55.143Z,2.57
2023-04-24T00:37:26.306Z,3.00
2023-04-24T00:39:57.648Z,3.00
2023-04-24T00:42:32.680Z,2.77
2023-04-24T00:45:08.530Z,3.23
2023-04-24T00:47:40.615Z,2.73
2023-04-24T00:50:13.633Z,2.90
2023-04-24T00:52:45.039Z,3.23
2023-04-24T00:55:16.822Z,3.10
2023-04-24T00:57:51.308Z,2.90
2023-04-24T01:00:23.363Z,2.67
2023-04-24T01:02:56.350Z,3.27
2023-04-24T01:05:27.453Z,3.57
2023-04-24T01:07:59.259Z,3.07
2023-04-24T01:10:33.687Z,3.00
2023-04-24T01:13:07.767Z,2.97
2023-04-24T01:15:39.849Z,3.07
2023-04-24T01:18:11.308Z,3.03
2023-04-24T01:20:45.905Z,3.07
2023-04-24T01:23:20.666Z,3.77
2023-04-24T01:25:53.826Z,2.80
2023-04-24T01:28:25.793Z,3.47
2023-04-24T01:30:57.232Z,3.27
2023-04-24T01:33:29.351Z,3.80
2023-04-24T01:36:00.585Z,3.47
2023-04-24T01:38:34.166Z,3.27
2023-04-24T01:41:06.024Z,3.70
2023-04-24T01:43:37.766Z,3.30
2023-04-24T01:46:10.481Z,3.30
2023-04-24T01:48:42.610Z,3.57
2023-04-24T01:51:19.275Z,3.90
2023-04-24T01:53:52.863Z,3.43
2023-04-24T01:56:25.893Z,3.30
2023-04-24T01:58:58.794Z,4.17
2023-04-24T02:01:30.456Z,3.53
2023-04-24T02:04:02.156Z,3.67
2023-04-24T02:06:34.162Z,3.70
2023-04-24T02:09:07.606Z,3.77
2023-04-24T02:11:38.708Z,3.73
2023-04-24T02:14:10.480Z,3.43
2023-04-24T02:16:42.173Z,4.07
2023-04-24T02:19:13.205Z,3.80
2023-04-24T02:21:44.792Z,4.10
2023-04-24T02:24:17.958Z,3.13
2023-04-24T02:26:49.061Z,4.17
2023-04-24T02:29:20.717Z,3.33
2023-04-24T02:31:52.577Z,3.60
2023-04-24T02:34:24.882Z,3.87
2023-04-24T02:36:56.835Z,3.57
2023-04-24T02:39:30.511Z,3.73
2023-04-24T02:42:02.315Z,4.37
2023-04-24T02:44:34.199Z,3.70
2023-04-24T02:47:05.911Z,3.83
2023-04-24T02:49:37.389Z,4.63
2023-04-24T02:52:11.886Z,3.77
2023-04-24T02:54:45.599Z,4.10
2023-04-24T02:57:17.395Z,4.03
2023-04-24T02:59:48.751Z,4.03
2023-04-24T03:02:20.793Z,3.33
2023-04-24T03:04:52.295Z,3.87
2023-04-24T03:07:25.924Z,3.00
2023-04-24T03:10:00.191Z,3.90
2023-04-24T03:12:31.100Z,3.50
2023-04-24T03:15:02.751Z,3.53
2023-04-24T03:17:34.785Z,3.90
2023-04-24T03:20:08.410Z,2.90
2023-04-24T03:22:40.971Z,3.63
2023-04-24T03:25:14.537Z,3.13
2023-04-24T03:27:47.307Z,3.30
2023-04-24T03:30:19.029Z,3.03
2023-04-24T03:32:50.948Z,2.87
2023-04-24T03:35:23.419Z,3.27
2023-04-24T03:37:55.436Z,3.00
2023-04-24T03:40:31.515Z,3.03
2023-04-24T03:43:03.502Z,3.37
2023-04-24T03:45:35.740Z,2.73
2023-04-24T03:48:07.482Z,2.63
2023-04-24T03:50:39.170Z,2.60
2023-04-24T03:53:10.480Z,2.60
2023-04-24T03:55:44.766Z,2.63
2023-04-24T03:58:17.788Z,2.77
2023-04-24T04:00:51.449Z,2.87
2023-04-24T04:03:24.400Z,2.47
2023-04-24T04:05:56.315Z,2.47
2023-04-24T04:08:28.913Z,2.27
2023-04-24T04:11:03.380Z,2.47
2023-04-24T04:13:36.319Z,2.37
2023-04-24T04:16:08.007Z,2.50
2023-04-24T04:18:39.609Z,2.47
2023-04-24T04:21:11.980Z,3.27
2023-04-24T04:23:43.675Z,2.80
2023-04-24T04:26:18.824Z,3.17
2023-04-24T04:28:51.110Z,2.90
2023-04-24T04:31:22.989Z,2.77
2023-04-24T04:33:54.658Z,2.90
2023-04-24T04:36:26.633Z,2.43
2023-04-24T04:38:59.413Z,2.50
2023-04-24T04:41:34.042Z,2.70
2023-04-24T04:44:06.541Z,2.70
2023-04-24T04:46:39.894Z,2.87
2023-04-24T04:49:11.377Z,3.23
2023-04-24T04:51:43.420Z,3.47
2023-04-24T04:54:16.534Z,2.73
2023-04-24T04:56:50.033Z,2.97
2023-04-24T04:59:22.653Z,2.60
2023-04-24T05:01:56.783Z,3.07
2023-04-24T05:04:28.655Z,3.10
2023-04-24T05:07:00.952Z,2.73
2023-04-24T05:09:33.093Z,3.27
2023-04-24T05:12:08.189Z,3.00
2023-04-24T05:14:39.709Z,3.07
2023-04-24T05:17:12.216Z,3.00
2023-04-24T05:19:44.842Z,2.73
2023-04-24T05:22:16.832Z,3.00
2023-04-24T05:24:47.983Z,3.20
2023-04-24T05:27:21.467Z,3.20
2023-04-24T05:29:53.255Z,3.13
2023-04-24T05:32:25.114Z,3.00
2023-04-24T05:34:56.872Z,2.93
2023-04-24T05:37:29.425Z,3.30
2023-04-24T05:40:01.192Z,3.63
2023-04-24T05:42:34.982Z,3.40
2023-04-24T05:45:06.662Z,3.47
2023-04-24T05:47:38.701Z,3.93
2023-04-24T05:50:11.490Z,3.43
2023-04-24T05:52:42.787Z,3.63
2023-04-24T05:55:15.194Z,3.80
2023-04-24T05:57:49.296Z,3.57
2023-04-24T06:00:22.494Z,3.90
2023-04-24T06:02:56.224Z,3.23
2023-04-24T06:05:28.385Z,4.17
2023-04-24T06:08:00.545Z,3.73
2023-04-24T06:10:32.943Z,3.53
2023-04-24T06:13:06.612Z,3.80
2023-04-24T06:15:37.979Z,3.33
2023-04-24T06:18:09.623Z,3.53
2023-04-24T06:20:41.451Z,3.40
2023-04-24T06:23:13.523Z,3.40
2023-04-24T06:25:46.852Z,3.23
2023-04-24T06:28:20.689Z,3.10
2023-04-24T06:30:52.397Z,3.07
2023-04-24T06:33:24.183Z,2.67
2023-04-24T06:35:56.003Z,3.00
2023-04-24T06:38:27.892Z,2.80
2023-04-24T06:40:59.859Z,2.80
2023-04-24T06:43:34.529Z,3.03
2023-04-24T06:46:06.457Z,2.80
2023-04-24T06:48:38.234Z,2.57
2023-04-24T06:51:10.035Z,3.13
2023-04-24T06:53:41.874Z,2.80
2023-04-24T06:56:13.490Z,2.67
2023-04-24T06:58:48.142Z,3.00
2023-04-24T07:01:19.726Z,2.83
2023-04-24T07:03:51.241Z,2.90
2023-04-24T07:06:25.419Z,3.00
2023-04-24T07:08:57.681Z,3.03
2023-04-24T07:11:32.209Z,2.50
2023-04-24T07:14:06.179Z,2.50
2023-04-24T07:16:38.056Z,1.87
2023-04-24T07:19:09.843Z,2.00
2023-04-24T07:21:41.845Z,2.20
2023-04-24T07:24:14.904Z,2.03
2023-04-24T07:26:47.575Z,1.80
2023-04-24T07:29:20.717Z,1.90
2023-04-24T07:31:52.840Z,1.57
2023-04-24T07:34:24.295Z,1.87
2023-04-24T07:36:55.425Z,1.67
2023-04-24T07:39:26.785Z,1.40
2023-04-24T07:41:58.661Z,1.90
2023-04-24T07:44:32.378Z,2.00
2023-04-24T07:47:04.020Z,1.50
2023-04-24T07:49:37.034Z,1.60
2023-04-24T07:52:08.516Z,1.97
2023-04-24T07:54:40.651Z,1.57
2023-04-24T07:57:13.270Z,1.40
2023-04-24T07:59:47.691Z,1.40
2023-04-24T08:02:19.854Z,1.50
2023-04-24T08:04:51.602Z,1.30
2023-04-24T08:07:23.297Z,1.10
2023-04-24T08:09:54.931Z,1.00
2023-04-24T08:12:26.595Z,1.20
2023-04-24T08:14:59.556Z,1.00
2023-04-24T08:17:31.551Z,1.00
2023-04-24T08:20:03.480Z,0.87
2023-04-24T08:22:35.334Z,1.37
2023-04-24T08:25:06.759Z,0.90
2023-04-24T08:27:38.725Z,0.80
2023-04-24T08:30:14.113Z,0.93
2023-04-24T08:32:45.521Z,0.70
2023-04-24T08:35:17.181Z,0.60
2023-04-24T08:37:49.669Z,0.80
2023-04-24T08:40:22.002Z,0.90
2023-04-24T08:42:55.686Z,0.50
2023-04-24T08:45:29.964Z,0.87
2023-04-24T08:48:04.574Z,0.70
2023-04-24T08:50:38.948Z,0.70
2023-04-24T08:53:10.936Z,0.50
2023-04-24T08:55:43.458Z,0.40
2023-04-24T08:58:16.002Z,0.43
2023-04-24T09:00:50.374Z,0.57
2023-04-24T09:03:22.301Z,0.50
2023-04-24T09:05:54.794Z,0.50
2023-04-24T09:08:28.205Z,0.37
2023-04-24T09:11:00.394Z,0.47
2023-04-24T09:13:32.131Z,0.40
2023-04-24T09:16:06.308Z,0.40
2023-04-24T09:18:38.060Z,0.73
2023-04-24T09:21:13.021Z,0.50
2023-04-24T09:23:45.432Z,0.40
2023-04-24T09:26:17.372Z,0.47
2023-04-24T09:28:49.021Z,0.50
2023-04-24T09:31:25.365Z,0.47
2023-04-24T09:34:02.285Z,0.43
2023-04-24T09:36:36.097Z,0.60
2023-04-24T09:39:10.186Z,0.60
2023-04-24T09:41:48.865Z,0.50
2023-04-24T09:44:22.894Z,0.53
2023-04-24T09:46:57.935Z,0.50
2023-04-24T09:49:30.998Z,0.50
2023-04-24T09:52:08.520Z,0.67
2023-04-24T09:54:40.253Z,0.50
2023-04-24T09:57:12.690Z,0.50
2023-04-24T09:59:49.850Z,0.50
2023-04-24T10:02:25.311Z,0.60
2023-04-24T10:05:01.707Z,0.50
2023-04-24T10:07:33.708Z,0.50
2023-04-24T10:10:05.127Z,0.70
2023-04-24T10:12:36.707Z,0.50
2023-04-24T10:15:11.430Z,0.40
2023-04-24T10:17:46.700Z,0.50
2023-04-24T10:20:18.767Z,0.73
2023-04-24T10:22:52.572Z,0.50
2023-04-24T10:25:25.720Z,0.67
2023-04-24T10:28:01.398Z,0.60
2023-04-24T10:30:36.843Z,0.70
2023-04-24T10:33:11.955Z,0.93
2023-04-24T10:35:46.712Z,0.90
2023-04-24T10:38:20.724Z,0.97
2023-04-24T10:40:53.390Z,0.57
2023-04-24T10:43:25.030Z,0.50
2023-04-24T10:46:07.215Z,0.50
2023-04-24T10:48:45.628Z,0.37
2023-04-24T10:51:18.088Z,0.50
2023-04-24T10:53:49.146Z,0.60
2023-04-24T10:56:21.483Z,0.60
2023-04-24T10:58:56.408Z,0.70
2023-04-24T11:01:34.323Z,0.50
2023-04-24T11:04:08.421Z,0.53
2023-04-24T11:06:40.948Z,0.57
2023-04-24T11:09:14.492Z,0.70
2023-04-24T11:11:50.309Z,0.50
2023-04-24T11:14:23.879Z,0.57
2023-04-24T11:16:57.844Z,0.60
2023-04-24T11:19:32.564Z,0.40
2023-04-24T11:22:05.777Z,0.50
2023-04-24T11:24:42.947Z,0.50
2023-04-24T11:27:18.380Z,0.40
2023-04-24T11:29:52.716Z,0.50
2023-04-24T11:32:34.236Z,0.40
2023-04-24T11:35:11.010Z,0.47
2023-04-24T11:37:43.999Z,0.30
2023-04-24T11:40:17.564Z,0.30
2023-04-24T11:42:51.485Z,0.80
2023-04-24T11:45:25.970Z,0.50
2023-04-24T11:47:58.064Z,0.63
2023-04-24T11:50:32.458Z,0.67
2023-04-24T11:53:05.156Z,0.67
2023-04-24T11:55:37.039Z,0.70
2023-04-24T11:58:09.773Z,0.63
2023-04-24T12:00:42.211Z,0.60
2023-04-24T12:03:15.364Z,0.43
2023-04-24T12:05:48.572Z,0.47
2023-04-24T12:08:33.831Z,0.33
2023-04-24T12:11:05.993Z,0.40
2023-04-24T12:13:38.421Z,0.50
2023-04-24T12:16:10.561Z,0.50
2023-04-24T12:18:48.115Z,0.50
2023-04-24T12:21:29.330Z,0.50
2023-04-24T12:24:01.132Z,0.60
2023-04-24T12:26:32.905Z,0.60
2023-04-24T12:29:07.448Z,0.40
2023-04-24T12:31:39.793Z,0.40
2023-04-24T12:34:23.803Z,0.60
2023-04-24T12:36:57.753Z,0.50
2023-04-24T12:39:29.406Z,0.67
2023-04-24T12:42:01.869Z,0.50
2023-04-24T12:44:37.090Z,0.50
2023-04-24T12:47:09.174Z,0.40
2023-04-24T12:49:41.218Z,0.43
2023-04-24T12:52:14.798Z,0.30
2023-04-24T12:54:46.329Z,0.40
2023-04-24T12:57:18.090Z,0.50
2023-04-24T12:59:49.703Z,0.63
2023-04-24T13:02:21.287Z,0.50
2023-04-24T13:04:53.172Z,0.50
2023-04-24T13:07:27.924Z,0.40
2023-04-24T13:10:00.639Z,0.40
2023-04-24T13:12:32.409Z,0.50
2023-04-24T13:15:03.998Z,0.40
2023-04-24T13:17:35.319Z,0.53
2023-04-24T13:20:07.735Z,0.50
2023-04-24T13:22:41.777Z,0.40
2023-04-24T13:25:13.587Z,0.90
2023-04-24T13:27:44.703Z,0.60
2023-04-24T13:30:16.993Z,0.57
2023-04-24T13:32:48.769Z,0.50
2023-04-24T13:35:20.058Z,0.67
2023-04-24T13:37:54.080Z,0.93
2023-04-24T13:40:25.695Z,1.00
2023-04-24T13:42:58.006Z,1.10
2023-04-24T13:45:29.584Z,1.20
2023-04-24T13:48:01.743Z,1.03
2023-04-24T13:50:33.360Z,1.30
2023-04-24T13:53:07.266Z,1.10
2023-04-24T13:55:38.908Z,1.00
2023-04-24T13:58:11.457Z,1.10
2023-04-24T14:00:43.287Z,1.00
2023-04-24T14:03:14.769Z,1.00
2023-04-24T14:05:46.193Z,1.00
2023-04-24T14:08:19.929Z,0.87
2023-04-24T14:10:51.194Z,0.80
2023-04-24T14:13:22.565Z,0.70
2023-04-24T14:15:54.655Z,0.80
2023-04-24T14:18:26.268Z,0.80
2023-04-24T14:20:57.676Z,1.00
2023-04-24T14:23:31.778Z,0.60
2023-04-24T14:26:03.852Z,0.90
2023-04-24T14:28:35.055Z,0.90
2023-04-24T14:31:06.042Z,0.73
2023-04-24T14:33:36.946Z,0.70
2023-04-24T14:36:08.208Z,0.60
2023-04-24T14:38:41.834Z,0.50
2023-04-24T14:41:14.671Z,0.60
2023-04-24T14:43:46.805Z,0.60
2023-04-24T14:46:18.698Z,0.83
2023-04-24T14:48:49.834Z,0.83
2023-04-24T14:51:21.049Z,0.90
2023-04-24T14:53:54.962Z,1.00
2023-04-24T14:56:27.340Z,0.83
2023-04-24T14:58:59.407Z,0.90
2023-04-24T15:01:31.182Z,0.50
2023-04-24T15:04:03.295Z,0.60
2023-04-24T15:06:35.748Z,0.73
2023-04-24T15:09:09.653Z,0.60
2023-04-24T15:11:41.976Z,0.60
2023-04-24T15:14:13.823Z,0.63
2023-04-24T15:16:45.363Z,0.50
2023-04-24T15:19:16.812Z,0.60
2023-04-24T15:21:49.650Z,0.70
2023-04-24T15:24:22.928Z,0.60
2023-04-24T15:26:54.803Z,0.60
2023-04-24T15:29:26.273Z,0.97
2023-04-24T15:31:58.152Z,8.10
2023-04-24T15:34:29.935Z,1.67
2023-04-24T15:37:01.441Z,3.13
2023-04-24T15:39:35.715Z,0.77
2023-04-24T15:42:10.540Z,0.47
2023-04-24T15:44:43.420Z,0.40
2023-04-24T15:47:16.471Z,0.40
2023-04-24T15:49:48.211Z,3.97
2023-04-24T15:52:19.259Z,0.73
2023-04-24T15:54:52.755Z,0.60
2023-04-24T15:57:25.026Z,0.70
2023-04-24T15:59:56.395Z,0.70
2023-04-24T16:02:28.225Z,0.20
2023-04-24T16:04:59.500Z,1.20
2023-04-24T16:07:31.239Z,0.90
2023-04-24T16:10:04.522Z,0.50
2023-04-24T16:12:36.213Z,0.60
2023-04-24T16:15:09.172Z,1.93
2023-04-24T16:17:40.435Z,0.30
2023-04-24T16:20:12.841Z,0.30
2023-04-24T16:22:44.435Z,1.43
2023-04-24T16:25:18.450Z,0.50
2023-04-24T16:27:50.610Z,0.80
2023-04-24T16:30:22.464Z,0.93
2023-04-24T16:32:54.021Z,0.30
2023-04-24T16:35:25.783Z,0.60
2023-04-24T16:37:56.531Z,0.30
2023-04-24T16:40:31.213Z,0.40
2023-04-24T16:43:02.912Z,0.23
2023-04-24T16:45:33.754Z,0.30
2023-04-24T16:48:06.013Z,0.30
2023-04-24T16:50:36.860Z,0.40
2023-04-24T16:53:08.086Z,0.30
2023-04-24T16:55:41.157Z,0.50
2023-04-24T16:58:12.751Z,0.40
2023-04-24T17:00:43.585Z,0.50
2023-04-24T17:03:14.726Z,0.40
2023-04-24T17:05:46.583Z,0.33
2023-04-24T17:08:17.605Z,0.40
2023-04-24T17:10:50.235Z,0.30
2023-04-24T17:13:21.257Z,0.40
2023-04-24T17:15:52.129Z,0.40
2023-04-24T17:18:23.105Z,0.40
2023-04-24T17:20:54.078Z,0.30
2023-04-24T17:23:25.663Z,0.30
2023-04-24T17:25:58.193Z,0.50
2023-04-24T17:28:31.336Z,0.40
2023-04-24T17:31:02.425Z,0.30
2023-04-24T17:33:34.397Z,0.30
2023-04-24T17:36:05.257Z,0.50
2023-04-24T17:38:36.339Z,0.23
2023-04-24T17:41:08.927Z,0.43
2023-04-24T17:43:39.731Z,0.40
2023-04-24T17:46:10.910Z,0.40
2023-04-24T17:48:41.749Z,0.30
2023-04-24T17:51:13.084Z,0.30
2023-04-24T17:53:44.001Z,0.50
2023-04-24T17:56:17.331Z,0.33
2023-04-24T17:58:48.761Z,0.30
2023-04-24T18:01:19.867Z,0.50
2023-04-24T18:03:50.990Z,0.50
2023-04-24T18:06:22.215Z,0.57
2023-04-24T18:08:53.036Z,0.30
2023-04-24T18:11:25.598Z,0.40
2023-04-24T18:13:57.921Z,1.10
2023-04-24T18:16:29.366Z,0.50
2023-04-24T18:19:00.828Z,0.20
2023-04-24T18:21:32.772Z,0.30
2023-04-24T18:24:04.424Z,0.40
2023-04-24T18:26:40.146Z,0.40
2023-04-24T18:29:11.410Z,0.30
2023-04-24T18:31:42.966Z,0.50
2023-04-24T18:34:14.683Z,0.60
2023-04-24T18:36:45.770Z,0.80
2023-04-24T18:39:17.946Z,0.47
2023-04-24T18:41:52.020Z,0.60
2023-04-24T18:44:25.557Z,0.40
2023-04-24T18:46:57.265Z,0.43
2023-04-24T18:49:28.916Z,0.70
2023-04-24T18:52:01.787Z,0.50
2023-04-24T18:54:34.323Z,0.60
2023-04-24T18:57:07.986Z,0.60
2023-04-24T18:59:39.678Z,0.50
2023-04-24T19:02:11.647Z,0.40
2023-04-24T19:04:43.399Z,0.40
2023-04-24T19:07:14.515Z,0.53
2023-04-24T19:09:46.041Z,0.43
2023-04-24T19:12:22.750Z,0.53
2023-04-24T19:14:56.858Z,0.37
2023-04-24T19:17:29.117Z,0.60
2023-04-24T19:20:00.627Z,0.57
2023-04-24T19:22:32.254Z,0.40
2023-04-24T19:25:04.448Z,0.50
2023-04-24T19:27:38.437Z,0.30
2023-04-24T19:30:12.204Z,0.30
2023-04-24T19:32:43.725Z,0.37
2023-04-24T19:35:15.243Z,0.47
2023-04-24T19:37:46.536Z,0.30
2023-04-24T19:40:17.658Z,0.30
2023-04-24T19:42:50.922Z,0.30
2023-04-24T19:45:22.399Z,0.43
2023-04-24T19:47:55.870Z,0.20
2023-04-24T19:50:27.673Z,0.40
2023-04-24T19:52:59.867Z,0.20
2023-04-24T19:55:31.446Z,0.30
2023-04-24T19:58:05.086Z,0.40
2023-04-24T20:00:36.825Z,0.20
2023-04-24T20:03:15.800Z,0.37
2023-04-24T20:05:53.103Z,0.30
2023-04-24T20:08:24.723Z,0.40
2023-04-24T20:10:59.072Z,0.30
2023-04-24T20:13:34.089Z,0.30
2023-04-24T20:16:05.370Z,0.30
2023-04-24T20:18:36.977Z,0.30
2023-04-24T20:21:08.092Z,0.50
2023-04-24T20:23:40.702Z,0.20
2023-04-24T20:26:12.454Z,0.30
2023-04-24T20:28:46.482Z,0.30
2023-04-24T20:31:18.905Z,0.23
2023-04-24T20:33:50.956Z,0.50
2023-04-24T20:36:23.049Z,0.40
2023-04-24T20:38:55.549Z,0.20
2023-04-24T20:41:27.612Z,0.20
2023-04-24T20:44:01.492Z,0.40
2023-04-24T20:46:33.339Z,0.30
2023-04-24T20:49:06.026Z,0.30
2023-04-24T20:51:37.890Z,0.40
2023-04-24T20:54:09.956Z,0.30
2023-04-24T20:56:41.851Z,0.30
2023-04-24T20:59:15.605Z,0.40
2023-04-24T21:01:47.737Z,0.40
2023-04-24T21:04:19.483Z,0.70
2023-04-24T21:06:51.141Z,0.30
2023-04-24T21:09:23.377Z,0.40
2023-04-24T21:11:54.585Z,0.30
2023-04-24T21:14:27.147Z,0.40
2023-04-24T21:17:00.654Z,0.30
2023-04-24T21:19:31.483Z,0.30
2023-04-24T21:22:02.399Z,0.30
2023-04-24T21:24:47.896Z,0.23
2023-04-24T21:27:20.097Z,0.30
2023-04-24T21:29:54.272Z,0.40
2023-04-24T21:32:26.082Z,0.30
2023-04-24T21:34:59.964Z,0.40
2023-04-24T21:37:34.340Z,0.20
2023-04-24T21:40:06.249Z,0.30
2023-04-24T21:42:38.401Z,0.50
2023-04-24T21:45:13.572Z,0.30
2023-04-24T21:47:45.117Z,0.20
2023-04-24T21:50:16.793Z,0.37
2023-04-24T21:52:48.600Z,0.30
2023-04-24T21:55:20.779Z,0.30
2023-04-24T21:57:52.627Z,0.40
2023-04-24T22:00:26.429Z,0.40
2023-04-24T22:02:58.232Z,0.40
2023-04-24T22:05:32.420Z,0.57
2023-04-24T22:08:03.260Z,0.43
2023-04-24T22:10:34.661Z,0.40
2023-04-24T22:13:06.385Z,0.40
2023-04-24T22:15:39.957Z,0.33
2023-04-24T22:18:12.848Z,0.30
2023-04-24T22:20:43.626Z,0.37
2023-04-24T22:23:15.478Z,0.27
2023-04-24T22:25:48.136Z,0.30
2023-04-24T22:28:19.833Z,0.30
2023-04-24T22:30:52.666Z,0.20
2023-04-24T22:33:24.118Z,0.20
2023-04-24T22:35:56.390Z,0.20
2023-04-24T22:38:28.458Z,0.30
2023-04-24T22:40:59.911Z,0.20
2023-04-24T22:43:31.632Z,0.30
2023-04-24T22:46:04.807Z,0.30
2023-04-24T22:48:36.985Z,0.33
2023-04-24T22:51:09.677Z,0.30
2023-04-24T22:53:41.518Z,0.20
2023-04-24T22:56:13.144Z,0.30
2023-04-24T22:58:45.605Z,0.30
2023-04-24T23:01:22.033Z,0.30
2023-04-24T23:03:54.047Z,0.30
2023-04-24T23:06:26.561Z,0.20
2023-04-24T23:08:58.653Z,0.40
2023-04-24T23:11:30.366Z,0.30
2023-04-24T23:14:02.521Z,0.30
2023-04-24T23:16:39.104Z,0.40
2023-04-24T23:19:09.915Z,0.20
2023-04-24T23:21:40.812Z,0.30
2023-04-24T23:24:11.904Z,0.30
2023-04-24T23:26:43.103Z,0.30
2023-04-24T23:29:14.194Z,0.30
2023-04-24T23:31:47.609Z,0.20
2023-04-24T23:34:19.679Z,0.10
2023-04-24T23:36:50.819Z,0.20
2023-04-24T23:39:22.060Z,0.27
2023-04-24T23:41:54.586Z,0.30
2023-04-24T23:44:25.657Z,0.30
2023-04-24T23:46:59.205Z,0.20
2023-04-24T23:49:30.484Z,0.20
2023-04-24T23:52:01.277Z,0.30
2023-04-24T23:54:32.540Z,0.20
2023-04-24T23:57:04.800Z,0.10
2023-04-24T23:59:35.824Z,0.20
